WON1323 WALL-WAFF
Flight info
| Callsign | WON1323 |
|---|---|
| Flight time | 0h 51m |
| Altitude | 15000 |
| Route | KALKU |
| Aircraft | AT76/M-SDFGIRY/S |
Departure
| Time | 2026-05-07 06:11 |
|---|---|
| Airport | Sultan Aji Muhammad Sulaiman Sepinggan International Airport (WALL) |
Arrival
| Time | 2026-05-07 07:02 |
|---|---|
| Airport | Mutiara - SIS Al-Jufrie Airport (WAFF) |
| Time | Latitude | Longitude | Altitude | Speed | Heading |
|---|---|---|---|---|---|
| 2026-05-07 05:49 | -1.26341 | 116.89775 | 19 ft | 0 kts | 338° |
| 2026-05-07 06:04 | -1.26345 | 116.89777 | 17 ft | 2 kts | 338° |
| 2026-05-07 06:04 | -1.26358 | 116.89782 | 17 ft | 2 kts | 339° |
| 2026-05-07 06:05 | -1.26371 | 116.89787 | 17 ft | 2 kts | 340° |
| 2026-05-07 06:05 | -1.26383 | 116.89791 | 17 ft | 2 kts | 342° |
| 2026-05-07 06:05 | -1.26396 | 116.89795 | 21 ft | 2 kts | 350° |
| 2026-05-07 06:05 | -1.26405 | 116.89796 | 20 ft | 1 kts | 8° |
| 2026-05-07 06:06 | -1.26411 | 116.89794 | 17 ft | 1 kts | 31° |
| 2026-05-07 06:06 | -1.26417 | 116.89791 | 17 ft | 1 kts | 51° |
| 2026-05-07 06:06 | -1.26421 | 116.89785 | 18 ft | 1 kts | 61° |
| 2026-05-07 06:06 | -1.26423 | 116.89781 | 22 ft | 1 kts | 65° |
| 2026-05-07 06:07 | -1.26425 | 116.89776 | 21 ft | 1 kts | 68° |
| 2026-05-07 06:07 | -1.26427 | 116.89771 | 21 ft | 1 kts | 69° |
| 2026-05-07 06:07 | -1.26424 | 116.89779 | 17 ft | 5 kts | 69° |
| 2026-05-07 06:07 | -1.26406 | 116.89826 | 17 ft | 9 kts | 69° |
| 2026-05-07 06:08 | -1.26379 | 116.89893 | 17 ft | 11 kts | 63° |
| 2026-05-07 06:08 | -1.26343 | 116.89969 | 19 ft | 13 kts | 66° |
| 2026-05-07 06:08 | -1.26310 | 116.90057 | 19 ft | 14 kts | 70° |
| 2026-05-07 06:08 | -1.26270 | 116.90147 | 17 ft | 14 kts | 64° |
| 2026-05-07 06:09 | -1.26230 | 116.90241 | 19 ft | 15 kts | 68° |
| 2026-05-07 06:09 | -1.26210 | 116.90337 | 17 ft | 14 kts | 119° |
| 2026-05-07 06:09 | -1.26263 | 116.90416 | 18 ft | 13 kts | 122° |
| 2026-05-07 06:09 | -1.26328 | 116.90469 | 20 ft | 11 kts | 170° |
| 2026-05-07 06:10 | -1.26398 | 116.90473 | 19 ft | 5 kts | 173° |
| 2026-05-07 06:10 | -1.26409 | 116.90462 | 19 ft | 2 kts | 242° |
| 2026-05-07 06:10 | -1.26426 | 116.90415 | 19 ft | 30 kts | 249° |
| 2026-05-07 06:10 | -1.26591 | 116.90030 | 20 ft | 89 kts | 248° |
| 2026-05-07 06:11 | -1.26899 | 116.89310 | 70 ft | 129 kts | 245° |
| 2026-05-07 06:11 | -1.27280 | 116.88471 | 562 ft | 132 kts | 245° |
| 2026-05-07 06:11 | -1.27659 | 116.87606 | 825 ft | 146 kts | 245° |
| 2026-05-07 06:11 | -1.28124 | 116.86608 | 879 ft | 169 kts | 237° |
| 2026-05-07 06:12 | -1.28990 | 116.85800 | 1180 ft | 171 kts | 204° |
| 2026-05-07 06:12 | -1.30144 | 116.85822 | 1579 ft | 173 kts | 154° |
| 2026-05-07 06:12 | -1.30900 | 116.86760 | 1901 ft | 182 kts | 106° |
| 2026-05-07 06:12 | -1.30801 | 116.88020 | 2174 ft | 187 kts | 75° |
| 2026-05-07 06:13 | -1.30467 | 116.89270 | 2490 ft | 188 kts | 75° |
| 2026-05-07 06:13 | -1.30143 | 116.90544 | 2824 ft | 190 kts | 75° |
| 2026-05-07 06:13 | -1.29828 | 116.91843 | 3190 ft | 191 kts | 76° |
| 2026-05-07 06:13 | -1.29524 | 116.93117 | 3539 ft | 191 kts | 75° |
| 2026-05-07 06:14 | -1.29214 | 116.94401 | 3883 ft | 190 kts | 75° |
| 2026-05-07 06:14 | -1.28900 | 116.95696 | 4210 ft | 191 kts | 75° |
| 2026-05-07 06:14 | -1.28583 | 116.96984 | 4560 ft | 191 kts | 75° |
| 2026-05-07 06:14 | -1.28266 | 116.98273 | 4925 ft | 191 kts | 75° |
| 2026-05-07 06:15 | -1.27943 | 116.99562 | 5263 ft | 191 kts | 74° |
| 2026-05-07 06:15 | -1.27622 | 117.00852 | 5616 ft | 191 kts | 74° |
| 2026-05-07 06:15 | -1.27299 | 117.02143 | 5937 ft | 191 kts | 74° |
| 2026-05-07 06:15 | -1.26975 | 117.03433 | 6235 ft | 192 kts | 74° |
| 2026-05-07 06:16 | -1.26652 | 117.04729 | 6514 ft | 192 kts | 74° |
| 2026-05-07 06:16 | -1.26330 | 117.06030 | 6777 ft | 193 kts | 75° |
| 2026-05-07 06:16 | -1.26011 | 117.07332 | 7035 ft | 193 kts | 75° |
| 2026-05-07 06:16 | -1.25690 | 117.08639 | 7309 ft | 194 kts | 75° |
| 2026-05-07 06:17 | -1.25366 | 117.09947 | 7575 ft | 194 kts | 75° |
| 2026-05-07 06:17 | -1.25044 | 117.11246 | 7833 ft | 195 kts | 75° |
| 2026-05-07 06:17 | -1.24720 | 117.12563 | 8093 ft | 196 kts | 75° |
| 2026-05-07 06:17 | -1.24393 | 117.13888 | 8344 ft | 196 kts | 75° |
| 2026-05-07 06:18 | -1.24066 | 117.15216 | 8600 ft | 197 kts | 75° |
| 2026-05-07 06:18 | -1.23738 | 117.16547 | 8839 ft | 198 kts | 75° |
| 2026-05-07 06:18 | -1.23409 | 117.17884 | 9098 ft | 198 kts | 76° |
| 2026-05-07 06:18 | -1.23080 | 117.19223 | 9370 ft | 199 kts | 75° |
| 2026-05-07 06:19 | -1.22748 | 117.20568 | 9614 ft | 199 kts | 75° |
| 2026-05-07 06:19 | -1.22417 | 117.21915 | 9832 ft | 201 kts | 76° |
| 2026-05-07 06:19 | -1.22084 | 117.23268 | 10057 ft | 201 kts | 76° |
| 2026-05-07 06:19 | -1.21751 | 117.24625 | 10282 ft | 201 kts | 76° |
| 2026-05-07 06:20 | -1.21414 | 117.25985 | 10504 ft | 202 kts | 75° |
| 2026-05-07 06:20 | -1.21079 | 117.27348 | 10728 ft | 202 kts | 75° |
| 2026-05-07 06:20 | -1.20743 | 117.28713 | 10954 ft | 203 kts | 75° |
| 2026-05-07 06:20 | -1.20405 | 117.30085 | 11165 ft | 203 kts | 75° |
| 2026-05-07 06:21 | -1.20067 | 117.31460 | 11372 ft | 204 kts | 75° |
| 2026-05-07 06:21 | -1.19728 | 117.32838 | 11591 ft | 205 kts | 75° |
| 2026-05-07 06:21 | -1.19389 | 117.34221 | 11800 ft | 205 kts | 75° |
| 2026-05-07 06:21 | -1.19048 | 117.35605 | 12013 ft | 206 kts | 75° |
| 2026-05-07 06:22 | -1.18706 | 117.36993 | 12216 ft | 206 kts | 75° |
| 2026-05-07 06:22 | -1.18030 | 117.39764 | 12621 ft | 207 kts | 75° |
| 2026-05-07 06:22 | -1.17694 | 117.41161 | 12820 ft | 207 kts | 75° |
| 2026-05-07 06:23 | -1.17360 | 117.42565 | 13005 ft | 208 kts | 75° |
| 2026-05-07 06:23 | -1.17021 | 117.43974 | 13193 ft | 209 kts | 75° |
| 2026-05-07 06:23 | -1.16683 | 117.45389 | 13380 ft | 210 kts | 75° |
| 2026-05-07 06:23 | -1.16343 | 117.46805 | 13577 ft | 209 kts | 75° |
| 2026-05-07 06:24 | -1.15998 | 117.48218 | 13735 ft | 210 kts | 75° |
| 2026-05-07 06:24 | -1.15649 | 117.49636 | 13889 ft | 210 kts | 75° |
| 2026-05-07 06:24 | -1.15299 | 117.51059 | 14042 ft | 211 kts | 75° |
| 2026-05-07 06:24 | -1.14948 | 117.52484 | 14189 ft | 212 kts | 75° |
| 2026-05-07 06:25 | -1.14596 | 117.53911 | 14360 ft | 212 kts | 75° |
| 2026-05-07 06:25 | -1.14243 | 117.55344 | 14519 ft | 213 kts | 75° |
| 2026-05-07 06:25 | -1.13888 | 117.56789 | 14659 ft | 215 kts | 75° |
| 2026-05-07 06:25 | -1.13532 | 117.58235 | 14723 ft | 220 kts | 75° |
| 2026-05-07 06:26 | -1.13163 | 117.59740 | 14760 ft | 226 kts | 75° |
| 2026-05-07 06:26 | -1.12781 | 117.61285 | 14777 ft | 232 kts | 75° |
| 2026-05-07 06:26 | -1.12393 | 117.62866 | 14785 ft | 237 kts | 75° |
| 2026-05-07 06:26 | -1.11995 | 117.64481 | 14791 ft | 241 kts | 76° |
| 2026-05-07 06:27 | -1.11589 | 117.66122 | 14794 ft | 245 kts | 76° |
| 2026-05-07 06:27 | -1.11180 | 117.67787 | 14790 ft | 248 kts | 75° |
| 2026-05-07 06:27 | -1.10765 | 117.69470 | 14791 ft | 251 kts | 75° |
| 2026-05-07 06:27 | -1.10347 | 117.71169 | 14789 ft | 253 kts | 76° |
| 2026-05-07 06:28 | -1.09926 | 117.72876 | 14787 ft | 254 kts | 76° |
| 2026-05-07 06:28 | -1.09502 | 117.74597 | 14789 ft | 255 kts | 76° |
| 2026-05-07 06:28 | -1.09078 | 117.76322 | 14789 ft | 256 kts | 76° |
| 2026-05-07 06:28 | -1.08651 | 117.78057 | 14789 ft | 257 kts | 76° |
| 2026-05-07 06:29 | -1.08221 | 117.79794 | 14790 ft | 258 kts | 76° |
| 2026-05-07 06:29 | -1.07793 | 117.81533 | 14791 ft | 258 kts | 76° |
| 2026-05-07 06:29 | -1.07363 | 117.83280 | 14789 ft | 259 kts | 76° |
| 2026-05-07 06:29 | -1.06933 | 117.85026 | 14790 ft | 259 kts | 76° |
| 2026-05-07 06:30 | -1.06502 | 117.86776 | 14788 ft | 259 kts | 76° |
| 2026-05-07 06:30 | -1.06076 | 117.88503 | 14792 ft | 259 kts | 76° |
| 2026-05-07 06:30 | -1.05646 | 117.90252 | 14792 ft | 260 kts | 76° |
| 2026-05-07 06:30 | -1.05214 | 117.92005 | 14792 ft | 260 kts | 76° |
| 2026-05-07 06:31 | -1.04783 | 117.93756 | 14791 ft | 260 kts | 75° |
| 2026-05-07 06:31 | -1.04350 | 117.95510 | 14789 ft | 260 kts | 76° |
| 2026-05-07 06:31 | -1.03918 | 117.97265 | 14789 ft | 260 kts | 76° |
| 2026-05-07 06:31 | -1.03486 | 117.99021 | 14790 ft | 260 kts | 76° |
| 2026-05-07 06:32 | -1.03054 | 118.00776 | 14791 ft | 260 kts | 76° |
| 2026-05-07 06:32 | -1.02621 | 118.02531 | 14792 ft | 260 kts | 76° |
| 2026-05-07 06:32 | -1.02188 | 118.04287 | 14792 ft | 260 kts | 76° |
| 2026-05-07 06:32 | -1.01755 | 118.06043 | 14791 ft | 260 kts | 76° |
| 2026-05-07 06:33 | -1.01322 | 118.07802 | 14791 ft | 260 kts | 76° |
| 2026-05-07 06:33 | -1.00888 | 118.09560 | 14791 ft | 260 kts | 75° |
| 2026-05-07 06:33 | -1.00455 | 118.11316 | 14788 ft | 260 kts | 76° |
| 2026-05-07 06:33 | -1.00022 | 118.13076 | 14790 ft | 260 kts | 76° |
| 2026-05-07 06:34 | -0.99588 | 118.14833 | 14790 ft | 260 kts | 76° |
| 2026-05-07 06:34 | -0.99156 | 118.16591 | 14794 ft | 261 kts | 76° |
| 2026-05-07 06:34 | -0.98728 | 118.18326 | 14794 ft | 260 kts | 75° |
| 2026-05-07 06:34 | -0.98295 | 118.20081 | 14790 ft | 261 kts | 75° |
| 2026-05-07 06:35 | -0.97861 | 118.21841 | 14791 ft | 260 kts | 76° |
| 2026-05-07 06:35 | -0.97429 | 118.23598 | 14792 ft | 260 kts | 76° |
| 2026-05-07 06:35 | -0.96995 | 118.25358 | 14793 ft | 260 kts | 75° |
| 2026-05-07 06:35 | -0.96562 | 118.27117 | 14789 ft | 260 kts | 76° |
| 2026-05-07 06:36 | -0.96127 | 118.28876 | 14788 ft | 260 kts | 76° |
| 2026-05-07 06:36 | -0.95694 | 118.30632 | 14788 ft | 260 kts | 76° |
| 2026-05-07 06:36 | -0.95408 | 118.31797 | 14787 ft | 260 kts | 76° |
| 2026-05-07 06:36 | -0.94974 | 118.33556 | 14790 ft | 260 kts | 76° |
| 2026-05-07 06:37 | -0.94401 | 118.35885 | 14788 ft | 260 kts | 76° |
| 2026-05-07 06:37 | -0.94108 | 118.37070 | 14787 ft | 260 kts | 76° |
| 2026-05-07 06:37 | -0.93534 | 118.39399 | 14788 ft | 260 kts | 76° |
| 2026-05-07 06:37 | -0.93242 | 118.40586 | 14788 ft | 260 kts | 76° |
| 2026-05-07 06:38 | -0.92807 | 118.42344 | 14789 ft | 260 kts | 76° |
| 2026-05-07 06:38 | -0.92375 | 118.44101 | 14789 ft | 260 kts | 76° |
| 2026-05-07 06:38 | -0.91934 | 118.45856 | 14752 ft | 262 kts | 75° |
| 2026-05-07 06:38 | -0.91479 | 118.47614 | 14619 ft | 267 kts | 75° |
| 2026-05-07 06:39 | -0.91007 | 118.49427 | 14477 ft | 271 kts | 75° |
| 2026-05-07 06:39 | -0.90528 | 118.51260 | 14340 ft | 274 kts | 75° |
| 2026-05-07 06:39 | -0.90043 | 118.53113 | 14198 ft | 277 kts | 75° |
| 2026-05-07 06:39 | -0.89555 | 118.54983 | 14062 ft | 279 kts | 75° |
| 2026-05-07 06:40 | -0.89064 | 118.56865 | 13913 ft | 280 kts | 75° |
| 2026-05-07 06:40 | -0.88570 | 118.58749 | 13779 ft | 280 kts | 75° |
| 2026-05-07 06:40 | -0.88078 | 118.60634 | 13635 ft | 280 kts | 75° |
| 2026-05-07 06:40 | -0.87586 | 118.62519 | 13484 ft | 280 kts | 75° |
| 2026-05-07 06:41 | -0.87094 | 118.64404 | 13324 ft | 281 kts | 75° |
| 2026-05-07 06:41 | -0.86600 | 118.66290 | 13168 ft | 281 kts | 75° |
| 2026-05-07 06:41 | -0.86107 | 118.68176 | 13007 ft | 281 kts | 75° |
| 2026-05-07 06:41 | -0.85611 | 118.70065 | 12849 ft | 281 kts | 75° |
| 2026-05-07 06:42 | -0.85118 | 118.71956 | 12690 ft | 281 kts | 75° |
| 2026-05-07 06:42 | -0.84626 | 118.73848 | 12535 ft | 281 kts | 75° |
| 2026-05-07 06:42 | -0.84134 | 118.75729 | 12376 ft | 279 kts | 75° |
| 2026-05-07 06:42 | -0.83642 | 118.77604 | 12208 ft | 278 kts | 75° |
| 2026-05-07 06:43 | -0.83152 | 118.79473 | 12069 ft | 278 kts | 75° |
| 2026-05-07 06:43 | -0.82671 | 118.81319 | 11921 ft | 278 kts | 75° |
| 2026-05-07 06:43 | -0.82184 | 118.83184 | 11769 ft | 278 kts | 75° |
| 2026-05-07 06:43 | -0.81695 | 118.85055 | 11619 ft | 278 kts | 75° |
| 2026-05-07 06:44 | -0.81209 | 118.86921 | 11459 ft | 278 kts | 75° |
| 2026-05-07 06:44 | -0.80721 | 118.88786 | 11324 ft | 278 kts | 75° |
| 2026-05-07 06:44 | -0.80232 | 118.90652 | 11172 ft | 278 kts | 75° |
| 2026-05-07 06:44 | -0.79744 | 118.92522 | 11024 ft | 278 kts | 75° |
| 2026-05-07 06:45 | -0.79256 | 118.94393 | 10879 ft | 278 kts | 75° |
| 2026-05-07 06:45 | -0.78765 | 118.96262 | 10727 ft | 278 kts | 75° |
| 2026-05-07 06:45 | -0.78277 | 118.98136 | 10578 ft | 278 kts | 75° |
| 2026-05-07 06:45 | -0.77790 | 119.00002 | 10434 ft | 277 kts | 75° |
| 2026-05-07 06:46 | -0.77304 | 119.01861 | 10297 ft | 276 kts | 75° |
| 2026-05-07 06:46 | -0.76819 | 119.03718 | 10155 ft | 276 kts | 75° |
| 2026-05-07 06:46 | -0.76334 | 119.05571 | 10013 ft | 275 kts | 75° |
| 2026-05-07 06:46 | -0.75850 | 119.07421 | 9872 ft | 275 kts | 75° |
| 2026-05-07 06:47 | -0.75367 | 119.09269 | 9737 ft | 275 kts | 75° |
| 2026-05-07 06:47 | -0.74885 | 119.11116 | 9586 ft | 275 kts | 75° |
| 2026-05-07 06:47 | -0.74400 | 119.12968 | 9428 ft | 275 kts | 75° |
| 2026-05-07 06:47 | -0.73922 | 119.14798 | 9274 ft | 276 kts | 75° |
| 2026-05-07 06:48 | -0.73437 | 119.16658 | 9118 ft | 277 kts | 75° |
| 2026-05-07 06:48 | -0.72951 | 119.18520 | 8966 ft | 277 kts | 75° |
| 2026-05-07 06:48 | -0.72464 | 119.20384 | 8812 ft | 277 kts | 75° |
| 2026-05-07 06:48 | -0.71976 | 119.22246 | 8667 ft | 277 kts | 75° |
| 2026-05-07 06:49 | -0.71488 | 119.24112 | 8507 ft | 277 kts | 75° |
| 2026-05-07 06:49 | -0.71001 | 119.25975 | 8356 ft | 277 kts | 75° |
| 2026-05-07 06:49 | -0.70541 | 119.27840 | 8187 ft | 274 kts | 81° |
| 2026-05-07 06:49 | -0.70646 | 119.29720 | 8092 ft | 271 kts | 98° |
| 2026-05-07 06:50 | -0.70925 | 119.31577 | 8031 ft | 270 kts | 97° |
| 2026-05-07 06:50 | -0.71119 | 119.33455 | 7852 ft | 273 kts | 94° |
| 2026-05-07 06:50 | -0.71200 | 119.35354 | 7675 ft | 275 kts | 91° |
| 2026-05-07 06:50 | -0.71237 | 119.37266 | 7498 ft | 276 kts | 91° |
| 2026-05-07 06:51 | -0.71274 | 119.39160 | 7323 ft | 277 kts | 91° |
| 2026-05-07 06:51 | -0.71321 | 119.41085 | 7144 ft | 277 kts | 91° |
| 2026-05-07 06:51 | -0.71375 | 119.43012 | 6964 ft | 277 kts | 91° |
| 2026-05-07 06:51 | -0.71438 | 119.44938 | 6785 ft | 276 kts | 92° |
| 2026-05-07 06:52 | -0.71507 | 119.46821 | 6616 ft | 267 kts | 92° |
| 2026-05-07 06:52 | -0.71569 | 119.48647 | 6442 ft | 260 kts | 92° |
| 2026-05-07 06:52 | -0.71626 | 119.50433 | 6283 ft | 254 kts | 92° |
| 2026-05-07 06:52 | -0.71685 | 119.52182 | 6116 ft | 250 kts | 92° |
| 2026-05-07 06:53 | -0.71744 | 119.53911 | 5944 ft | 247 kts | 92° |
| 2026-05-07 06:53 | -0.71801 | 119.55617 | 5778 ft | 244 kts | 92° |
| 2026-05-07 06:53 | -0.71859 | 119.57311 | 5613 ft | 243 kts | 91° |
| 2026-05-07 06:53 | -0.71918 | 119.59000 | 5451 ft | 243 kts | 91° |
| 2026-05-07 06:54 | -0.71976 | 119.60685 | 5286 ft | 242 kts | 91° |
| 2026-05-07 06:54 | -0.72034 | 119.62364 | 5120 ft | 242 kts | 91° |
| 2026-05-07 06:54 | -0.72090 | 119.64022 | 4962 ft | 241 kts | 91° |
| 2026-05-07 06:54 | -0.72148 | 119.65699 | 4804 ft | 241 kts | 91° |
| 2026-05-07 06:55 | -0.72205 | 119.67375 | 4649 ft | 241 kts | 91° |
| 2026-05-07 06:55 | -0.72264 | 119.69050 | 4482 ft | 242 kts | 91° |
| 2026-05-07 06:55 | -0.72321 | 119.70731 | 4312 ft | 242 kts | 91° |
| 2026-05-07 06:55 | -0.72379 | 119.72405 | 4145 ft | 242 kts | 91° |
| 2026-05-07 06:56 | -0.72437 | 119.74084 | 3982 ft | 242 kts | 91° |
| 2026-05-07 06:56 | -0.72494 | 119.75765 | 3816 ft | 242 kts | 91° |
| 2026-05-07 06:56 | -0.72552 | 119.77451 | 3664 ft | 243 kts | 91° |
| 2026-05-07 06:56 | -0.72611 | 119.79125 | 3577 ft | 239 kts | 91° |
| 2026-05-07 06:57 | -0.72683 | 119.80768 | 3452 ft | 233 kts | 96° |
| 2026-05-07 06:57 | -0.73319 | 119.82137 | 3272 ft | 208 kts | 133° |
| 2026-05-07 06:57 | -0.74364 | 119.83043 | 3100 ft | 195 kts | 143° |
| 2026-05-07 06:57 | -0.75493 | 119.83753 | 2948 ft | 194 kts | 151° |
| 2026-05-07 06:58 | -0.76684 | 119.84334 | 2788 ft | 185 kts | 156° |
| 2026-05-07 06:58 | -0.77837 | 119.84830 | 2639 ft | 179 kts | 157° |
| 2026-05-07 06:58 | -0.78996 | 119.85323 | 2482 ft | 184 kts | 156° |
| 2026-05-07 06:58 | -0.80168 | 119.85824 | 2349 ft | 176 kts | 157° |
| 2026-05-07 06:59 | -0.81262 | 119.86281 | 2217 ft | 165 kts | 158° |
| 2026-05-07 06:59 | -0.82264 | 119.86707 | 2162 ft | 149 kts | 157° |
| 2026-05-07 06:59 | -0.83171 | 119.87100 | 1965 ft | 136 kts | 157° |
| 2026-05-07 06:59 | -0.84005 | 119.87466 | 1774 ft | 127 kts | 157° |
| 2026-05-07 07:00 | -0.84795 | 119.87822 | 1617 ft | 124 kts | 156° |
| 2026-05-07 07:00 | -0.85586 | 119.88182 | 1459 ft | 129 kts | 155° |
| 2026-05-07 07:00 | -0.86431 | 119.88562 | 1264 ft | 134 kts | 159° |
| 2026-05-07 07:00 | -0.87290 | 119.88889 | 1042 ft | 130 kts | 156° |
| 2026-05-07 07:01 | -0.88126 | 119.89274 | 847 ft | 133 kts | 155° |
| 2026-05-07 07:01 | -0.88951 | 119.89653 | 641 ft | 130 kts | 156° |
| 2026-05-07 07:01 | -0.89766 | 119.90021 | 455 ft | 126 kts | 155° |
| 2026-05-07 07:01 | -0.90539 | 119.90374 | 300 ft | 120 kts | 155° |
| 2026-05-07 07:02 | -0.91282 | 119.90707 | 229 ft | 108 kts | 155° |
| 2026-05-07 07:02 | -0.91853 | 119.90964 | 232 ft | 57 kts | 156° |
| 2026-05-07 07:02 | -0.92088 | 119.91069 | 229 ft | 31 kts | 157° |
| 2026-05-07 07:02 | -0.92182 | 119.91127 | 226 ft | 2 kts | 206° |
| 2026-05-07 07:03 | -0.92180 | 119.91115 | 227 ft | 2 kts | 301° |
| 2026-05-07 07:03 | -0.92142 | 119.91095 | 229 ft | 11 kts | 336° |
| 2026-05-07 07:03 | -0.92065 | 119.91061 | 229 ft | 12 kts | 335° |
| 2026-05-07 07:03 | -0.91991 | 119.91028 | 231 ft | 12 kts | 336° |
| 2026-05-07 07:04 | -0.91917 | 119.90993 | 232 ft | 12 kts | 335° |
| 2026-05-07 07:04 | -0.91868 | 119.90943 | 231 ft | 10 kts | 259° |
| 2026-05-07 07:04 | -0.91898 | 119.90874 | 231 ft | 12 kts | 245° |
| 2026-05-07 07:04 | -0.91916 | 119.90810 | 231 ft | 6 kts | 300° |
| 2026-05-07 07:05 | -0.91901 | 119.90797 | 231 ft | 0 kts | 306° |
| 2026-05-07 07:05 | -0.91903 | 119.90786 | 232 ft | 5 kts | 253° |
| 2026-05-07 07:05 | -0.91916 | 119.90758 | 233 ft | 4 kts | 246° |
| 2026-05-07 07:05 | -0.91922 | 119.90746 | 233 ft | 0 kts | 245° |